createdAt,value
2019-02-04T00:03:43.365Z,3.10
2019-02-04T00:06:34.620Z,3.10
2019-02-04T00:09:07.951Z,3.10
2019-02-04T00:11:57.540Z,3.10
2019-02-04T00:14:47.504Z,3.10
2019-02-04T00:17:37.014Z,3.10
2019-02-04T00:20:26.446Z,3.00
2019-02-04T00:23:15.904Z,3.00
2019-02-04T00:26:05.526Z,3.00
2019-02-04T00:28:54.889Z,3.00
2019-02-04T00:31:44.476Z,3.00
2019-02-04T00:34:33.817Z,3.00
2019-02-04T00:37:23.567Z,3.00
2019-02-04T00:39:53.799Z,2.90
2019-02-04T00:42:23.650Z,2.70
2019-02-04T00:45:13.334Z,2.60
2019-02-04T00:47:43.261Z,2.60
2019-02-04T00:50:13.650Z,2.50
2019-02-04T00:52:43.632Z,2.50
2019-02-04T00:55:13.821Z,2.50
2019-02-04T00:57:44.050Z,2.60
2019-02-04T01:00:21.065Z,2.60
2019-02-04T01:02:51.099Z,2.60
2019-02-04T01:05:21.925Z,2.60
2019-02-04T01:08:11.391Z,2.60
2019-02-04T01:11:01.391Z,2.70
2019-02-04T01:13:50.985Z,2.70
2019-02-04T01:16:20.928Z,2.70
2019-02-04T01:18:50.918Z,2.60
2019-02-04T01:24:15.373Z,2.50
2019-02-04T01:26:46.110Z,2.50
2019-02-04T01:29:35.595Z,2.50
2019-02-04T01:32:06.014Z,2.50
2019-02-04T01:34:55.752Z,2.50
2019-02-04T01:37:25.883Z,2.50
2019-02-04T01:40:09.962Z,2.60
2019-02-04T01:42:59.356Z,2.60
2019-02-04T01:45:29.220Z,2.60
2019-02-04T01:47:59.290Z,2.60
2019-02-04T01:50:48.629Z,2.60
2019-02-04T01:53:18.518Z,2.60
2019-02-04T01:56:08.055Z,2.60
2019-02-04T01:58:57.565Z,2.70
2019-02-04T02:01:27.608Z,2.60
2019-02-04T02:04:17.156Z,2.60
2019-02-04T02:06:47.277Z,2.60
2019-02-04T02:09:36.640Z,2.60
2019-02-04T02:12:07.017Z,2.50
2019-02-04T02:14:36.917Z,2.60
2019-02-04T02:17:26.814Z,2.60
2019-02-04T02:20:19.123Z,2.60
2019-02-04T02:22:49.083Z,2.60
2019-02-04T02:25:19.103Z,2.50
2019-02-04T02:27:50.003Z,2.50
2019-02-04T02:30:30.793Z,2.50
2019-02-04T02:33:22.712Z,2.50
2019-02-04T02:35:52.609Z,2.50
2019-02-04T02:38:22.472Z,2.50
2019-02-04T02:40:53.137Z,2.50
2019-02-04T02:43:23.143Z,2.60
2019-02-04T02:45:53.004Z,2.60
2019-02-04T02:48:22.938Z,2.50
2019-02-04T02:50:52.852Z,2.50
2019-02-04T02:53:42.577Z,2.50
2019-02-04T02:56:32.358Z,2.50
2019-02-04T02:59:02.240Z,2.50
2019-02-04T03:01:51.727Z,2.40
2019-02-04T03:04:41.616Z,2.40
2019-02-04T03:07:11.527Z,2.30
2019-02-04T03:09:41.398Z,2.30
2019-02-04T03:12:11.192Z,2.20
2019-02-04T03:15:01.069Z,2.20
2019-02-04T03:17:52.482Z,2.10
2019-02-04T03:21:00.109Z,2.10
2019-02-04T03:23:30.040Z,1.90
2019-02-04T03:26:19.550Z,1.80
2019-02-04T03:29:09.228Z,1.80
2019-02-04T03:31:58.800Z,1.80
2019-02-04T03:34:48.322Z,1.70
2019-02-04T03:37:18.182Z,1.70
2019-02-04T03:39:48.056Z,1.60
2019-02-04T03:42:17.902Z,1.60
2019-02-04T03:45:07.699Z,1.60
2019-02-04T03:47:37.596Z,1.60
2019-02-04T03:50:09.387Z,1.50
2019-02-04T03:52:58.904Z,1.40
2019-02-04T03:55:48.200Z,1.40
2019-02-04T03:58:18.053Z,1.40
2019-02-04T04:00:47.950Z,1.40
2019-02-04T04:03:17.784Z,1.30
2019-02-04T04:05:47.814Z,1.30
2019-02-04T04:08:37.163Z,1.30
2019-02-04T04:11:26.718Z,1.30
2019-02-04T04:14:15.980Z,1.30
2019-02-04T04:17:05.323Z,1.30
2019-02-04T04:19:54.602Z,1.20
2019-02-04T04:22:44.214Z,1.20
2019-02-04T04:25:14.716Z,1.20
2019-02-04T04:27:44.605Z,1.10
2019-02-04T04:30:23.426Z,1.10
2019-02-04T04:33:12.723Z,1.10
2019-02-04T04:35:53.270Z,1.00
2019-02-04T04:38:35.259Z,1.00
2019-02-04T04:41:05.494Z,0.90
2019-02-04T04:43:35.425Z,0.90
2019-02-04T04:46:24.701Z,0.90
2019-02-04T04:49:14.032Z,0.90
2019-02-04T04:52:03.357Z,0.90
2019-02-04T04:54:52.779Z,0.80
2019-02-04T04:57:42.172Z,0.80
2019-02-04T05:00:32.081Z,0.80
2019-02-04T05:03:05.899Z,0.80
2019-02-04T05:05:40.219Z,0.80
2019-02-04T05:08:30.567Z,0.80
2019-02-04T05:16:41.703Z,0.80
2019-02-04T05:19:11.606Z,0.70
2019-02-04T05:22:01.216Z,0.70
2019-02-04T05:24:52.289Z,0.60
2019-02-04T05:27:41.653Z,0.50
2019-02-04T05:30:29.225Z,0.50
2019-02-04T05:32:59.132Z,0.50
2019-02-04T05:35:29.038Z,0.40
2019-02-04T05:37:58.972Z,0.40
2019-02-04T05:40:51.416Z,0.40
2019-02-04T05:43:23.515Z,0.40
2019-02-04T05:45:53.329Z,0.40
2019-02-04T05:48:23.338Z,0.40
2019-02-04T05:50:53.245Z,0.40
2019-02-04T05:53:23.104Z,0.40
2019-02-04T05:55:53.097Z,0.40
2019-02-04T05:58:23.198Z,0.40
2019-02-04T06:00:53.194Z,0.40
2019-02-04T06:03:42.566Z,0.40
2019-02-04T06:06:32.680Z,0.40
2019-02-04T06:09:22.099Z,0.40
2019-02-04T06:15:13.449Z,0.30
2019-02-04T06:18:05.548Z,0.20
2019-02-04T06:20:56.446Z,0.10
2019-02-04T06:23:38.222Z,0.10
2019-02-04T06:27:00.328Z,0.10
2019-02-04T06:29:29.417Z,0.10
2019-02-04T06:32:19.526Z,0.10
2019-02-04T06:37:47.138Z,0.20
2019-02-04T06:40:20.792Z,0.20
2019-02-04T06:45:52.553Z,0.10
2019-02-04T06:48:22.723Z,0.10
2019-02-04T06:51:13.805Z,0.00
2019-02-04T06:53:47.188Z,0.00
2019-02-04T06:56:39.191Z,0.00
2019-02-04T06:59:12.181Z,0.00
2019-02-04T07:01:42.454Z,0.00
2019-02-04T07:04:33.436Z,0.10
2019-02-04T07:07:03.982Z,0.10
2019-02-04T07:09:53.461Z,0.10
2019-02-04T07:21:24.346Z,0.20
2019-02-04T07:26:50.220Z,0.20
2019-02-04T07:29:20.132Z,0.20
2019-02-04T07:31:49.994Z,0.10
2019-02-04T07:34:20.001Z,0.10
2019-02-04T07:37:09.266Z,0.10
2019-02-04T07:39:39.351Z,0.10
2019-02-04T07:42:09.550Z,0.10
2019-02-04T07:44:39.555Z,0.10
2019-02-04T07:47:09.638Z,0.10
2019-02-04T07:49:59.181Z,0.10
2019-02-04T07:52:48.964Z,0.20
2019-02-04T07:55:19.129Z,0.20
2019-02-04T07:58:08.627Z,0.20
2019-02-04T08:00:38.760Z,0.20
2019-02-04T08:03:08.663Z,0.20
2019-02-04T08:05:39.202Z,0.20
2019-02-04T08:08:09.424Z,0.20
2019-02-04T08:10:39.467Z,0.30
2019-02-04T08:13:09.588Z,0.30
2019-02-04T08:15:39.909Z,0.30
2019-02-04T08:18:09.891Z,0.30
2019-02-04T08:20:40.033Z,0.40
2019-02-04T08:23:29.570Z,0.50
2019-02-04T08:26:18.969Z,0.60
2019-02-04T08:28:48.954Z,0.60
2019-02-04T08:31:19.218Z,0.60
2019-02-04T08:34:08.832Z,0.70
2019-02-04T08:36:58.539Z,0.70
2019-02-04T08:39:42.188Z,0.80
2019-02-04T08:42:31.744Z,0.90
2019-02-04T08:45:21.200Z,1.00
2019-02-04T08:47:51.222Z,1.00
2019-02-04T08:50:21.481Z,1.20
2019-02-04T08:53:11.238Z,1.20
2019-02-04T08:55:41.399Z,1.30
2019-02-04T08:58:11.850Z,1.40
2019-02-04T09:01:01.253Z,1.50
2019-02-04T09:03:50.695Z,1.60
2019-02-04T09:06:20.826Z,1.60
2019-02-04T09:08:50.809Z,1.70
2019-02-04T09:11:20.955Z,1.80
2019-02-04T09:13:50.943Z,1.80
2019-02-04T09:16:21.518Z,1.90
2019-02-04T09:19:10.899Z,1.90
2019-02-04T09:21:40.784Z,1.90
2019-02-04T09:24:10.757Z,2.00
2019-02-04T09:27:01.108Z,2.10
2019-02-04T09:29:50.512Z,2.10
2019-02-04T09:32:20.769Z,2.10
2019-02-04T09:34:50.767Z,2.20
2019-02-04T09:37:21.048Z,2.20
2019-02-04T09:39:51.171Z,2.30
2019-02-04T09:42:21.640Z,2.40
2019-02-04T09:44:51.746Z,2.40
2019-02-04T09:47:22.519Z,2.50
2019-02-04T09:50:21.412Z,2.60
2019-02-04T09:53:24.136Z,2.60
2019-02-04T09:56:13.520Z,2.70
2019-02-04T09:59:02.914Z,2.80
2019-02-04T10:01:52.593Z,2.80
2019-02-04T10:04:42.239Z,2.90
2019-02-04T10:07:12.551Z,2.90
2019-02-04T10:10:23.397Z,2.90
2019-02-04T10:12:53.872Z,3.00
2019-02-04T10:15:31.557Z,3.00
2019-02-04T10:18:01.547Z,3.00
2019-02-04T10:20:34.543Z,3.10
2019-02-04T10:23:05.596Z,3.20
2019-02-04T10:25:38.323Z,3.20
2019-02-04T10:28:28.130Z,3.30
2019-02-04T10:31:18.783Z,3.30
2019-02-04T10:36:38.346Z,3.30
2019-02-04T10:39:08.820Z,3.40
2019-02-04T10:41:38.861Z,3.40
2019-02-04T10:44:08.812Z,3.50
2019-02-04T10:46:38.771Z,3.50
2019-02-04T10:49:08.737Z,3.50
2019-02-04T10:51:58.614Z,3.60
2019-02-04T10:54:48.177Z,3.50
2019-02-04T10:57:18.933Z,3.50
2019-02-04T10:59:49.126Z,3.60
2019-02-04T11:02:43.258Z,3.60
2019-02-04T11:05:47.028Z,3.60
2019-02-04T11:08:17.064Z,3.70
2019-02-04T11:11:06.427Z,3.60
2019-02-04T11:13:55.955Z,3.60
2019-02-04T11:16:45.492Z,3.60
2019-02-04T11:19:35.169Z,3.70
2019-02-04T11:22:05.127Z,3.80
2019-02-04T11:24:35.332Z,3.80
2019-02-04T11:27:05.499Z,3.80
2019-02-04T11:29:35.517Z,3.80
2019-02-04T11:32:05.716Z,3.80
2019-02-04T11:34:35.765Z,4.00
2019-02-04T11:37:25.552Z,4.20
2019-02-04T11:39:56.303Z,4.30
2019-02-04T11:42:26.659Z,4.40
2019-02-04T11:44:56.768Z,4.50
2019-02-04T11:47:27.154Z,4.60
2019-02-04T11:49:58.194Z,4.60
2019-02-04T11:52:47.737Z,4.60
2019-02-04T11:55:42.496Z,4.70
2019-02-04T11:58:35.314Z,4.60
2019-02-04T12:01:24.867Z,4.70
2019-02-04T12:04:15.874Z,4.80
2019-02-04T12:06:47.747Z,4.80
2019-02-04T12:09:18.089Z,4.80
2019-02-04T12:12:07.890Z,4.80
2019-02-04T12:14:38.218Z,4.70
2019-02-04T12:17:28.025Z,4.60
2019-02-04T12:20:00.886Z,4.60
2019-02-04T12:22:50.274Z,4.50
2019-02-04T12:25:40.689Z,4.40
2019-02-04T12:28:30.770Z,4.30
2019-02-04T12:31:20.500Z,4.20
2019-02-04T12:34:10.169Z,4.20
2019-02-04T12:36:40.647Z,4.20
2019-02-04T12:39:31.079Z,4.20
2019-02-04T12:42:21.371Z,4.40
2019-02-04T12:45:14.662Z,4.60
2019-02-04T12:47:44.846Z,4.80
2019-02-04T12:50:15.283Z,4.90
2019-02-04T12:52:47.456Z,5.00
2019-02-04T12:55:37.290Z,5.00
2019-02-04T12:58:41.119Z,5.00
2019-02-04T13:01:36.220Z,5.00
2019-02-04T13:04:25.697Z,5.00
2019-02-04T13:07:34.995Z,4.90
2019-02-04T13:10:24.825Z,4.90
2019-02-04T13:13:16.645Z,4.90
2019-02-04T13:16:06.167Z,4.90
2019-02-04T13:18:36.986Z,5.00
2019-02-04T13:21:26.598Z,4.90
2019-02-04T13:24:16.186Z,4.80
2019-02-04T13:26:46.269Z,4.60
2019-02-04T13:29:16.264Z,4.60
2019-02-04T13:31:46.236Z,4.50
2019-02-04T13:34:36.049Z,4.50
2019-02-04T13:37:06.747Z,4.60
2019-02-04T13:39:36.721Z,4.60
2019-02-04T13:42:06.957Z,4.70
2019-02-04T13:44:39.120Z,4.80
2019-02-04T13:47:28.507Z,4.90
2019-02-04T13:50:18.746Z,5.00
2019-02-04T13:53:10.494Z,5.00
2019-02-04T13:56:00.500Z,5.00
2019-02-04T13:58:50.616Z,4.90
2019-02-04T14:01:22.059Z,4.80
2019-02-04T14:04:11.449Z,4.70
2019-02-04T14:07:00.862Z,4.70
2019-02-04T14:16:43.730Z,4.50
2019-02-04T14:19:16.383Z,4.60
2019-02-04T14:22:09.349Z,4.60
2019-02-04T14:30:38.511Z,4.30
2019-02-04T14:33:27.897Z,4.30
2019-02-04T14:36:17.467Z,4.40
2019-02-04T14:39:31.417Z,4.30
2019-02-04T14:42:39.103Z,4.40
2019-02-04T14:46:07.679Z,4.40
2019-02-04T14:53:13.619Z,4.30
2019-02-04T14:56:21.267Z,4.30
2019-02-04T14:59:30.717Z,4.30
2019-02-04T15:02:52.688Z,4.30
2019-02-04T15:06:21.047Z,4.30
2019-02-04T15:09:35.623Z,4.20
2019-02-04T15:16:41.654Z,4.20
2019-02-04T15:20:10.453Z,4.10
2019-02-04T15:23:26.624Z,4.10
2019-02-04T15:26:35.067Z,4.10
2019-02-04T15:29:46.341Z,4.10
2019-02-04T15:33:18.214Z,4.00
2019-02-04T15:39:45.033Z,3.90
2019-02-04T15:59:18.622Z,3.70
2019-02-04T16:01:49.466Z,3.60
2019-02-04T16:04:40.058Z,3.60
2019-02-04T16:07:29.416Z,3.50
2019-02-04T16:09:59.770Z,3.50
2019-02-04T16:12:49.541Z,3.40
2019-02-04T16:15:42.415Z,3.40
2019-02-04T16:18:31.729Z,3.40
2019-02-04T16:21:02.301Z,3.30
2019-02-04T16:23:52.595Z,3.30
2019-02-04T16:26:22.484Z,3.30
2019-02-04T16:28:52.426Z,3.20
2019-02-04T16:31:22.419Z,3.20
2019-02-04T16:33:52.484Z,3.20
2019-02-04T16:36:23.763Z,3.20
2019-02-04T16:38:57.884Z,3.20
2019-02-04T16:41:30.956Z,3.10
2019-02-04T16:44:20.424Z,3.10
2019-02-04T16:46:51.096Z,3.00
2019-02-04T16:49:21.562Z,3.00
2019-02-04T16:51:51.466Z,3.00
2019-02-04T16:54:23.899Z,2.90
2019-02-04T16:57:34.854Z,2.90
2019-02-04T17:00:26.988Z,2.80
2019-02-04T17:03:33.819Z,2.80
2019-02-04T17:06:08.750Z,2.80
2019-02-04T17:08:58.496Z,2.70
2019-02-04T17:11:28.634Z,2.70
2019-02-04T17:14:18.290Z,2.60
2019-02-04T17:19:45.063Z,2.60
2019-02-04T17:22:15.304Z,2.60
2019-02-04T17:25:19.284Z,2.60
2019-02-04T17:28:15.670Z,2.60
2019-02-04T17:31:05.296Z,2.50
2019-02-04T17:33:35.556Z,2.50
2019-02-04T17:36:25.797Z,2.40
2019-02-04T17:39:15.579Z,2.40
2019-02-04T17:41:49.300Z,2.40
2019-02-04T17:44:39.201Z,2.30
2019-02-04T17:47:12.799Z,2.30
2019-02-04T17:49:43.259Z,2.30
2019-02-04T17:52:55.958Z,2.20
2019-02-04T17:55:48.296Z,2.20
2019-02-04T17:58:37.647Z,2.10
2019-02-04T18:01:08.029Z,2.10
2019-02-04T18:03:58.236Z,2.10
2019-02-04T18:06:56.153Z,2.10
2019-02-04T18:09:28.204Z,2.10
2019-02-04T18:12:07.714Z,2.10
2019-02-04T18:14:42.090Z,2.10
2019-02-04T18:20:48.581Z,2.00
2019-02-04T18:23:45.666Z,2.00
2019-02-04T18:26:36.403Z,2.00
2019-02-04T18:29:27.709Z,2.00
2019-02-04T18:32:19.055Z,2.00
2019-02-04T18:35:20.025Z,1.90
2019-02-04T18:38:21.713Z,1.90
2019-02-04T18:44:17.106Z,1.90
2019-02-04T18:50:16.967Z,1.80
2019-02-04T18:52:50.217Z,1.80
2019-02-04T19:14:41.119Z,1.70
2019-02-04T19:17:13.014Z,1.80
2019-02-04T19:40:03.191Z,1.60
2019-02-04T19:42:40.618Z,1.60
2019-02-04T19:45:32.539Z,1.60
2019-02-04T19:48:24.339Z,1.60
2019-02-04T19:51:00.798Z,1.60
2019-02-04T19:57:00.937Z,1.60
2019-02-04T20:02:39.179Z,1.60
2019-02-04T20:05:29.012Z,1.70
2019-02-04T20:08:18.844Z,1.60
2019-02-04T20:11:29.196Z,1.60
2019-02-04T20:14:20.088Z,1.60
2019-02-04T20:16:58.893Z,1.70
2019-02-04T20:20:06.714Z,1.70
2019-02-04T20:25:42.920Z,1.60
2019-02-04T20:28:21.558Z,1.70
2019-02-04T20:33:46.375Z,1.70
2019-02-04T20:36:35.935Z,1.60
2019-02-04T20:39:24.378Z,1.60
2019-02-04T20:42:17.968Z,1.60
2019-02-04T20:45:08.493Z,1.60
2019-02-04T20:47:59.156Z,1.60
2019-02-04T20:50:48.910Z,1.60
2019-02-04T20:53:40.441Z,1.60
2019-02-04T20:56:33.864Z,1.60
2019-02-04T21:02:37.271Z,1.60
2019-02-04T21:08:09.806Z,1.60
2019-02-04T21:10:41.232Z,1.60
2019-02-04T21:13:31.267Z,1.60
2019-02-04T21:16:21.085Z,1.60
2019-02-04T21:30:47.970Z,1.60
2019-02-04T21:38:55.657Z,1.70
2019-02-04T21:41:26.182Z,1.60
2019-02-04T21:43:56.937Z,1.60
2019-02-04T21:47:09.400Z,1.60
2019-02-04T21:53:12.540Z,1.70
2019-02-04T21:55:42.866Z,1.50
2019-02-04T21:58:49.941Z,1.40
2019-02-04T22:01:26.205Z,1.40
2019-02-04T22:29:41.679Z,1.60
2019-02-04T22:35:57.804Z,1.60
2019-02-04T22:38:45.351Z,1.60
2019-02-04T22:41:15.956Z,1.60
2019-02-04T22:47:01.748Z,1.60
2019-02-04T22:49:34.434Z,1.60
2019-02-04T22:55:31.887Z,1.70
2019-02-04T22:58:00.403Z,1.70
2019-02-04T23:01:36.469Z,1.60
2019-02-04T23:07:47.523Z,1.60
2019-02-04T23:10:37.505Z,1.60
2019-02-04T23:13:29.086Z,1.60
2019-02-04T23:16:18.701Z,1.50
2019-02-04T23:19:08.549Z,1.50
2019-02-04T23:21:38.881Z,1.50
2019-02-04T23:24:28.519Z,1.50
2019-02-04T23:27:18.036Z,1.50
2019-02-04T23:29:48.135Z,1.50
2019-02-04T23:32:18.267Z,1.50
2019-02-04T23:34:48.180Z,1.50
2019-02-04T23:37:18.591Z,1.50
2019-02-04T23:39:48.518Z,1.40
2019-02-04T23:42:18.627Z,1.40
2019-02-04T23:45:08.216Z,1.40
2019-02-04T23:47:38.333Z,1.30
2019-02-04T23:50:28.397Z,1.30
2019-02-04T23:53:19.123Z,1.30
2019-02-04T23:56:08.836Z,1.40
2019-02-04T23:58:58.581Z,1.40
